Terminal Aerodrome Forecast
Issued by NWS Albany, NY

Home | Current Version | Previous Version | Text Only | Print | Product List | Glossary On
Versions: 1 2 3 4 5 6 7 8 9 10 11 12 13 14 15
086
FTUS41 KALY 311206 AAA
TAFPOU
TAF AMD
KPOU 311206Z 3112/0112 VRB03KT P6SM SCT005 BKN250
      TEMPO 3112/3114 BKN005 OVC250
     FM311500 22005KT P6SM SCT050 OVC150
     FM312100 23006KT P6SM VCSH BKN050 OVC100
     FM010200 VRB03KT 6SM -SHRA BR SCT020 OVC050
     FM010800 VRB03KT 5SM -SHRA BR SCT020 OVC040=

USA.gov is the U.S. government's official web portal to all federal, state and local government web resources and services.